createdAt,value
2018-11-26T00:00:21.779Z,97079.58
2018-11-26T00:02:25.860Z,97081.97
2018-11-26T00:04:30.892Z,97077.09
2018-11-26T00:06:35.899Z,97075.39
2018-11-26T00:08:39.972Z,97073.52
2018-11-26T00:11:19.468Z,97077.69
2018-11-26T00:13:23.566Z,97074.41
2018-11-26T00:15:27.641Z,97071.79
2018-11-26T00:17:31.714Z,97071.37
2018-11-26T00:19:35.793Z,97068.31
2018-11-26T00:29:49.642Z,97067.48
2018-11-26T00:37:31.014Z,97070.99
2018-11-26T00:39:35.109Z,97068.73
2018-11-26T00:41:39.186Z,97064.34
2018-11-26T00:43:43.272Z,97066.17
2018-11-26T00:45:47.342Z,97060.74
2018-11-26T00:47:51.410Z,97065.23
2018-11-26T00:49:55.495Z,97060.69
2018-11-26T00:51:59.572Z,97059.79
2018-11-26T00:54:04.723Z,97052.95
2018-11-26T00:56:08.782Z,97055.47
2018-11-26T00:58:12.930Z,97050.92
2018-11-26T01:00:18.828Z,97051.86
2018-11-26T01:02:22.895Z,97054.68
2018-11-26T01:04:26.981Z,97047.16
2018-11-26T01:06:31.047Z,97047.11
2018-11-26T01:08:35.127Z,97045.13
2018-11-26T01:10:39.188Z,97044.34
2018-11-26T01:12:43.264Z,97045.36
2018-11-26T01:14:47.325Z,97045.16
2018-11-26T01:16:51.417Z,97045.22
2018-11-26T01:18:55.503Z,97043.45
2018-11-26T01:20:59.591Z,97045.75
2018-11-26T01:23:03.721Z,97044.99
2018-11-26T01:25:07.871Z,97043.83
2018-11-26T01:27:11.938Z,97043.96
2018-11-26T01:29:16.023Z,97043.03
2018-11-26T01:31:20.167Z,97046.22
2018-11-26T01:33:24.255Z,97048.31
2018-11-26T01:35:28.334Z,97049.67
2018-11-26T01:37:32.400Z,97052.19
2018-11-26T01:39:36.485Z,97050.03
2018-11-26T01:41:40.570Z,97059.69
2018-11-26T01:43:44.641Z,97062.64
2018-11-26T01:45:48.719Z,97061.75
2018-11-26T01:47:52.796Z,97059.75
2018-11-26T01:49:56.872Z,97061.38
2018-11-26T01:52:00.936Z,97061.23
2018-11-26T01:54:05.666Z,97059.27
2018-11-26T01:56:09.743Z,97064.23
2018-11-26T01:58:13.811Z,97058.84
2018-11-26T02:00:17.970Z,97053.28
2018-11-26T02:02:22.033Z,97051.30
2018-11-26T02:04:26.118Z,97049.28
2018-11-26T02:06:30.198Z,97050.83
2018-11-26T02:08:34.267Z,97058.67
2018-11-26T02:10:38.330Z,97060.53
2018-11-26T02:12:42.418Z,97055.47
2018-11-26T02:14:46.488Z,97052.34
2018-11-26T02:16:50.641Z,97057.66
2018-11-26T02:18:54.710Z,97056.20
2018-11-26T02:20:58.792Z,97058.74
2018-11-26T02:23:03.041Z,97060.66
2018-11-26T02:25:07.255Z,97054.91
2018-11-26T02:27:11.342Z,97052.69
2018-11-26T02:29:15.401Z,97050.92
2018-11-26T02:31:19.528Z,97046.38
2018-11-26T02:33:23.683Z,97043.33
2018-11-26T02:35:27.755Z,97045.15
2018-11-26T02:37:31.823Z,97035.19
2018-11-26T02:39:35.882Z,97036.87
2018-11-26T02:41:39.973Z,97042.77
2018-11-26T02:43:44.030Z,97044.13
2018-11-26T02:45:48.146Z,97040.47
2018-11-26T02:47:52.219Z,97043.89
2018-11-26T02:49:56.308Z,97041.59
2018-11-26T02:52:01.995Z,97039.77
2018-11-26T02:54:05.340Z,97047.49
2018-11-26T02:56:09.497Z,97044.78
2018-11-26T02:58:13.576Z,97042.81
2018-11-26T03:00:17.716Z,97052.92
2018-11-26T03:02:21.838Z,97053.22
2018-11-26T03:04:25.907Z,97045.35
2018-11-26T03:06:29.984Z,97046.61
2018-11-26T03:08:34.057Z,97041.33
2018-11-26T03:10:38.127Z,97041.73
2018-11-26T03:12:42.217Z,97043.93
2018-11-26T03:14:46.341Z,97044.52
2018-11-26T03:16:50.484Z,97046.28
2018-11-26T03:18:54.562Z,97044.19
2018-11-26T03:20:58.709Z,97038.88
2018-11-26T03:23:02.761Z,97034.00
2018-11-26T03:25:06.944Z,97034.28
2018-11-26T03:27:10.998Z,97038.97
2018-11-26T03:29:15.147Z,97036.91
2018-11-26T03:31:19.256Z,97031.20
2018-11-26T03:33:23.317Z,97034.44
2018-11-26T03:35:27.389Z,97029.63
2018-11-26T03:37:31.441Z,97037.75
2018-11-26T03:39:35.609Z,97038.50
2018-11-26T03:41:39.672Z,97040.87
2018-11-26T03:43:43.724Z,97049.36
2018-11-26T03:45:47.798Z,97044.53
2018-11-26T03:47:51.860Z,97048.00
2018-11-26T03:49:55.934Z,97046.30
2018-11-26T03:52:00.028Z,97042.78
2018-11-26T03:54:04.240Z,97048.39
2018-11-26T03:56:08.386Z,97045.34
2018-11-26T03:58:12.469Z,97047.94
2018-11-26T04:00:16.624Z,97050.14
2018-11-26T04:02:20.754Z,97044.06
2018-11-26T04:04:24.816Z,97050.75
2018-11-26T04:06:28.922Z,97044.31
2018-11-26T04:08:33.011Z,97047.76
2018-11-26T04:10:37.064Z,97045.27
2018-11-26T04:12:41.161Z,97041.38
2018-11-26T04:14:45.241Z,97043.00
2018-11-26T04:16:49.314Z,97041.38
2018-11-26T04:18:53.461Z,97041.13
2018-11-26T04:20:57.527Z,97041.13
2018-11-26T04:23:01.602Z,97040.58
2018-11-26T04:25:06.124Z,97044.67
2018-11-26T04:27:11.071Z,97039.59
2018-11-26T04:29:15.127Z,97036.17
2018-11-26T04:31:19.195Z,97034.28
2018-11-26T04:33:23.273Z,97037.59
2018-11-26T04:35:27.362Z,97039.19
2018-11-26T04:37:31.441Z,97037.68
2018-11-26T04:39:35.498Z,97036.59
2018-11-26T04:41:39.599Z,97032.98
2018-11-26T04:43:43.665Z,97034.14
2018-11-26T04:45:47.797Z,97033.53
2018-11-26T04:47:51.855Z,97028.93
2018-11-26T04:49:56.044Z,97031.89
2018-11-26T04:52:00.112Z,97036.05
2018-11-26T04:54:04.440Z,97034.86
2018-11-26T04:56:08.551Z,97038.56
2018-11-26T04:58:12.616Z,97039.30
2018-11-26T05:00:16.706Z,97035.42
2018-11-26T05:02:20.763Z,97041.17
2018-11-26T05:04:24.849Z,97042.06
2018-11-26T05:06:29.013Z,97040.98
2018-11-26T05:08:33.064Z,97037.19
2018-11-26T05:10:37.228Z,97040.70
2018-11-26T05:12:41.303Z,97032.86
2018-11-26T05:14:45.401Z,97037.38
2018-11-26T05:16:49.457Z,97034.15
2018-11-26T05:18:53.523Z,97030.36
2018-11-26T05:20:57.596Z,97038.07
2018-11-26T05:23:01.660Z,97039.45
2018-11-26T05:25:06.083Z,97035.27
2018-11-26T05:27:10.148Z,97037.04
2018-11-26T05:29:15.123Z,97037.00
2018-11-26T05:31:19.195Z,97039.08
2018-11-26T05:33:23.273Z,97035.03
2018-11-26T05:35:27.355Z,97039.91
2018-11-26T05:37:31.426Z,97039.62
2018-11-26T05:39:35.492Z,97038.76
2018-11-26T05:41:39.584Z,97043.72
2018-11-26T05:43:43.657Z,97039.45
2018-11-26T05:45:47.743Z,97036.03
2018-11-26T05:47:51.801Z,97036.44
2018-11-26T05:49:55.859Z,97041.75
2018-11-26T05:51:59.941Z,97042.30
2018-11-26T05:54:04.009Z,97042.31
2018-11-26T05:56:08.099Z,97042.63
2018-11-26T05:58:12.175Z,97047.66
2018-11-26T06:00:17.239Z,97045.83
2018-11-26T06:02:21.332Z,97038.16
2018-11-26T06:04:25.413Z,97034.63
2018-11-26T06:06:29.485Z,97032.10
2018-11-26T06:08:33.547Z,97042.51
2018-11-26T06:10:37.617Z,97039.66
2018-11-26T06:12:41.701Z,97038.61
2018-11-26T06:14:45.770Z,97035.52
2018-11-26T06:16:53.763Z,97037.25
2018-11-26T06:18:54.793Z,97036.92
2018-11-26T06:20:58.864Z,97035.84
2018-11-26T06:23:02.945Z,97037.52
2018-11-26T06:25:07.016Z,97035.83
2018-11-26T06:27:11.100Z,97031.20
2018-11-26T06:29:15.213Z,97040.11
2018-11-26T06:31:19.343Z,97036.72
2018-11-26T06:33:23.430Z,97046.44
2018-11-26T06:35:27.508Z,97049.15
2018-11-26T06:37:31.582Z,97042.83
2018-11-26T06:39:35.659Z,97047.89
2018-11-26T06:41:39.732Z,97045.31
2018-11-26T06:43:43.900Z,97045.70
2018-11-26T06:45:47.970Z,97047.75
2018-11-26T06:47:52.063Z,97049.98
2018-11-26T06:49:56.136Z,97049.52
2018-11-26T06:52:00.194Z,97046.61
2018-11-26T06:54:04.340Z,97046.71
2018-11-26T06:56:08.448Z,97047.58
2018-11-26T06:58:12.537Z,97048.95
2018-11-26T07:00:16.654Z,97050.92
2018-11-26T07:02:20.778Z,97051.72
2018-11-26T07:04:24.884Z,97057.36
2018-11-26T07:06:28.954Z,97056.14
2018-11-26T07:08:33.044Z,97056.41
2018-11-26T07:10:37.195Z,97061.03
2018-11-26T07:12:41.535Z,97059.06
2018-11-26T07:14:46.500Z,97058.39
2018-11-26T07:16:50.576Z,97056.94
2018-11-26T07:18:54.664Z,97060.41
2018-11-26T07:20:58.805Z,97064.34
2018-11-26T07:23:02.858Z,97065.14
2018-11-26T07:25:07.013Z,97065.00
2018-11-26T07:27:11.091Z,97062.03
2018-11-26T07:29:15.173Z,97069.44
2018-11-26T07:31:19.241Z,97072.77
2018-11-26T07:33:23.319Z,97067.61
2018-11-26T07:35:27.410Z,97071.48
2018-11-26T07:37:31.487Z,97066.94
2018-11-26T07:39:35.552Z,97072.71
2018-11-26T07:41:39.629Z,97073.33
2018-11-26T07:43:43.687Z,97077.99
2018-11-26T07:45:47.786Z,97084.12
2018-11-26T07:47:51.873Z,97090.70
2018-11-26T07:49:55.950Z,97094.53
2018-11-26T07:52:00.042Z,97100.84
2018-11-26T07:54:05.011Z,97098.43
2018-11-26T07:56:09.138Z,97093.07
2018-11-26T07:58:13.206Z,97093.62
2018-11-26T08:00:17.887Z,97091.38
2018-11-26T08:02:21.988Z,97092.28
2018-11-26T08:04:26.101Z,97095.58
2018-11-26T08:06:31.080Z,97100.04
2018-11-26T08:08:35.413Z,97096.99
2018-11-26T08:10:39.577Z,97095.48
2018-11-26T08:12:43.657Z,97097.50
2018-11-26T08:14:47.744Z,97097.56
2018-11-26T08:16:51.823Z,97095.88
2018-11-26T08:18:55.994Z,97100.75
2018-11-26T08:21:00.085Z,97101.51
2018-11-26T08:23:04.849Z,97099.88
2018-11-26T08:25:09.086Z,97102.31
2018-11-26T08:27:14.045Z,97100.82
2018-11-26T08:29:18.171Z,97104.48
2018-11-26T08:31:22.383Z,97108.88
2018-11-26T08:33:26.491Z,97107.95
2018-11-26T08:35:30.536Z,97108.84
2018-11-26T08:37:34.617Z,97111.14
2018-11-26T08:39:39.567Z,97103.75
2018-11-26T08:41:44.509Z,97108.70
2018-11-26T08:43:49.476Z,97114.59
2018-11-26T08:45:54.397Z,97106.58
2018-11-26T08:47:58.491Z,97106.16
2018-11-26T08:50:02.563Z,97118.69
2018-11-26T08:52:06.631Z,97118.39
2018-11-26T08:54:10.769Z,97120.78
2018-11-26T08:56:15.941Z,97121.67
2018-11-26T08:58:19.796Z,97124.80
2018-11-26T09:00:23.893Z,97121.93
2018-11-26T09:02:28.835Z,97125.81
2018-11-26T09:04:33.398Z,97129.61
2018-11-26T09:06:37.543Z,97133.89
2018-11-26T09:08:41.632Z,97135.71
2018-11-26T09:10:45.686Z,97136.06
2018-11-26T09:12:49.790Z,97133.41
2018-11-26T09:14:53.892Z,97135.84
2018-11-26T09:16:57.956Z,97137.88
2018-11-26T09:19:02.083Z,97140.77
2018-11-26T09:21:06.173Z,97140.11
2018-11-26T09:23:10.343Z,97142.83
2018-11-26T09:25:14.410Z,97147.38
2018-11-26T09:27:18.563Z,97140.55
2018-11-26T09:29:22.645Z,97147.73
2018-11-26T09:31:26.717Z,97153.95
2018-11-26T09:33:30.793Z,97151.36
2018-11-26T09:35:34.983Z,97155.44
2018-11-26T09:37:39.120Z,97152.49
2018-11-26T09:39:43.203Z,97152.36
2018-11-26T09:41:47.324Z,97148.72
2018-11-26T09:43:51.384Z,97157.32
2018-11-26T09:45:55.479Z,97156.70
2018-11-26T09:47:59.544Z,97158.60
2018-11-26T09:50:50.070Z,97162.12
2018-11-26T09:53:49.682Z,97163.23
2018-11-26T09:56:49.458Z,97167.70
2018-11-26T09:59:49.145Z,97165.25
2018-11-26T10:02:48.719Z,97168.19
2018-11-26T10:04:52.810Z,97158.89
2018-11-26T10:07:49.458Z,97154.08
2018-11-26T10:09:53.531Z,97155.16
2018-11-26T10:11:57.616Z,97161.84
2018-11-26T10:14:47.853Z,97156.59
2018-11-26T10:16:51.951Z,97154.92
2018-11-26T10:18:56.020Z,97158.13
2018-11-26T10:21:00.094Z,97149.39
2018-11-26T10:23:04.560Z,97149.39
2018-11-26T10:25:48.450Z,97147.16
2018-11-26T10:27:52.535Z,97147.27
2018-11-26T10:29:56.607Z,97145.17
2018-11-26T10:32:02.802Z,97146.70
2018-11-26T10:34:05.675Z,97143.62
2018-11-26T10:36:49.098Z,97147.14
2018-11-26T10:38:53.175Z,97150.23
2018-11-26T10:40:57.250Z,97149.91
2018-11-26T10:43:01.329Z,97148.70
2018-11-26T10:45:06.034Z,97144.80
2018-11-26T10:47:50.538Z,97144.63
2018-11-26T10:49:54.612Z,97148.69
2018-11-26T10:51:58.679Z,97153.19
2018-11-26T10:54:02.769Z,97150.20
2018-11-26T10:56:06.845Z,97153.52
2018-11-26T10:58:10.923Z,97158.16
2018-11-26T11:00:16.054Z,97155.89
2018-11-26T11:02:21.018Z,97154.66
2018-11-26T11:04:25.113Z,97158.56
2018-11-26T11:06:29.174Z,97161.34
2018-11-26T11:08:33.263Z,97157.84
2018-11-26T11:10:37.342Z,97157.62
2018-11-26T11:12:41.407Z,97155.69
2018-11-26T11:14:45.500Z,97160.52
2018-11-26T11:16:49.567Z,97154.28
2018-11-26T11:18:53.653Z,97151.79
2018-11-26T11:20:57.764Z,97146.16
2018-11-26T11:23:50.713Z,97147.34
2018-11-26T11:25:54.803Z,97146.17
2018-11-26T11:27:58.867Z,97141.42
2018-11-26T11:30:03.407Z,97149.70
2018-11-26T11:32:50.208Z,97145.34
2018-11-26T11:34:54.298Z,97145.84
2018-11-26T11:36:58.392Z,97152.57
2018-11-26T11:39:02.471Z,97144.35
2018-11-26T11:41:07.450Z,97141.64
2018-11-26T11:43:11.517Z,97145.98
2018-11-26T11:45:15.600Z,97149.79
2018-11-26T11:47:49.950Z,97142.98
2018-11-26T11:49:54.037Z,97140.06
2018-11-26T11:51:58.118Z,97140.27
2018-11-26T11:54:02.205Z,97151.36
2018-11-26T11:56:06.365Z,97147.99
2018-11-26T11:58:10.435Z,97148.75
2018-11-26T12:00:15.486Z,97148.42
2018-11-26T12:02:50.104Z,97149.48
2018-11-26T12:04:54.251Z,97146.93
2018-11-26T12:06:58.344Z,97154.30
2018-11-26T12:09:02.556Z,97158.14
2018-11-26T12:11:07.610Z,97155.69
2018-11-26T12:13:11.757Z,97153.12
2018-11-26T12:15:15.895Z,97159.30
2018-11-26T12:17:19.990Z,97167.61
2018-11-26T12:19:24.055Z,97160.95
2018-11-26T12:21:28.135Z,97166.26
2018-11-26T12:23:32.235Z,97160.71
2018-11-26T12:25:51.045Z,97166.30
2018-11-26T12:27:55.134Z,97165.08
2018-11-26T12:29:59.203Z,97159.03
2018-11-26T12:32:03.326Z,97162.77
2018-11-26T12:34:07.421Z,97157.05
2018-11-26T12:36:11.518Z,97160.53
2018-11-26T12:38:15.611Z,97164.47
2018-11-26T12:40:19.676Z,97165.78
2018-11-26T12:42:23.745Z,97158.00
2018-11-26T12:44:30.461Z,97164.95
2018-11-26T12:46:34.536Z,97162.27
2018-11-26T12:48:38.637Z,97164.09
2018-11-26T12:50:42.689Z,97167.09
2018-11-26T12:52:46.773Z,97167.13
2018-11-26T12:54:50.850Z,97176.33
2018-11-26T12:56:54.927Z,97174.03
2018-11-26T12:58:59.097Z,97176.56
2018-11-26T13:01:03.171Z,97179.42
2018-11-26T13:03:07.249Z,97177.92
2018-11-26T13:05:11.424Z,97179.98
2018-11-26T13:07:15.513Z,97181.14
2018-11-26T13:19:51.178Z,97182.78
2018-11-26T13:22:50.359Z,97187.20
2018-11-26T13:25:49.590Z,97192.02
2018-11-26T13:28:48.022Z,97186.25
2018-11-26T13:35:49.247Z,97188.09
2018-11-26T13:38:48.170Z,97190.86
2018-11-26T13:40:52.249Z,97195.13
2018-11-26T13:43:48.233Z,97191.80
2018-11-26T13:46:47.669Z,97202.49
2018-11-26T13:49:49.893Z,97203.69
2018-11-26T13:51:53.991Z,97207.23
2018-11-26T13:53:58.137Z,97214.03
2018-11-26T13:56:02.307Z,97214.33
2018-11-26T13:58:06.447Z,97212.30
2018-11-26T14:00:10.787Z,97216.58
2018-11-26T14:02:15.753Z,97218.41
2018-11-26T14:04:19.929Z,97220.58
2018-11-26T14:06:24.024Z,97222.61
2018-11-26T14:08:49.705Z,97227.44
2018-11-26T14:10:53.794Z,97226.16
2018-11-26T14:12:57.886Z,97217.86
2018-11-26T14:15:01.959Z,97225.76
2018-11-26T14:17:06.128Z,97218.66
2018-11-26T14:19:10.212Z,97222.95
2018-11-26T14:21:14.295Z,97225.80
2018-11-26T14:23:18.400Z,97228.33
2018-11-26T14:25:49.790Z,97226.07
2018-11-26T14:27:53.897Z,97231.23
2018-11-26T14:29:58.046Z,97238.50
2018-11-26T14:32:02.123Z,97231.30
2018-11-26T14:34:06.279Z,97232.61
2018-11-26T14:36:10.343Z,97237.82
2018-11-26T14:38:14.427Z,97238.92
2018-11-26T14:40:19.457Z,97240.48
2018-11-26T14:42:23.536Z,97245.77
2018-11-26T14:44:27.618Z,97256.04
2018-11-26T14:46:31.693Z,97251.48
2018-11-26T14:48:35.793Z,97254.45
2018-11-26T14:50:48.538Z,97256.69
2018-11-26T14:52:52.605Z,97260.47
2018-11-26T14:54:56.695Z,97267.05
2018-11-26T14:57:00.775Z,97267.71
2018-11-26T14:59:05.235Z,97270.94
2018-11-26T15:01:09.350Z,97270.73
2018-11-26T15:03:13.464Z,97272.20
2018-11-26T15:05:17.533Z,97271.66
2018-11-26T15:07:21.692Z,97269.83
2018-11-26T15:09:25.757Z,97274.51
2018-11-26T15:11:29.854Z,97280.81
2018-11-26T15:13:33.916Z,97287.09
2018-11-26T15:15:37.999Z,97285.09
2018-11-26T15:17:42.157Z,97283.68
2018-11-26T15:19:46.217Z,97279.96
2018-11-26T15:21:50.310Z,97293.03
2018-11-26T15:23:54.402Z,97287.94
2018-11-26T15:25:59.030Z,97289.16
2018-11-26T15:28:03.724Z,97288.72
2018-11-26T15:30:08.134Z,97291.49
2018-11-26T15:32:12.214Z,97297.44
2018-11-26T15:34:16.283Z,97296.23
2018-11-26T15:36:20.367Z,97299.70
2018-11-26T15:38:24.444Z,97301.81
2018-11-26T15:40:28.544Z,97306.77
2018-11-26T15:42:32.606Z,97302.17
2018-11-26T15:44:36.896Z,97305.45
2018-11-26T15:46:40.962Z,97308.20
2018-11-26T15:48:45.038Z,97305.45
2018-11-26T15:50:49.131Z,97308.66
2018-11-26T15:52:53.284Z,97310.32
2018-11-26T15:54:57.371Z,97319.72
2018-11-26T15:57:03.124Z,97322.44
2018-11-26T15:59:07.195Z,97322.39
2018-11-26T16:01:11.323Z,97318.83
2018-11-26T16:03:15.443Z,97320.52
2018-11-26T16:05:19.529Z,97324.48
2018-11-26T16:07:23.622Z,97322.25
2018-11-26T16:09:27.700Z,97328.69
2018-11-26T16:11:31.763Z,97325.98
2018-11-26T16:13:35.878Z,97323.98
2018-11-26T16:15:39.974Z,97335.33
2018-11-26T16:17:44.065Z,97327.81
2018-11-26T16:19:48.127Z,97327.18
2018-11-26T16:21:52.208Z,97336.30
2018-11-26T16:23:56.299Z,97337.81
2018-11-26T16:26:00.375Z,97338.05
2018-11-26T16:28:04.637Z,97343.91
2018-11-26T16:30:08.851Z,97336.84
2018-11-26T16:32:12.935Z,97348.04
2018-11-26T16:34:17.017Z,97344.03
2018-11-26T16:36:21.083Z,97346.80
2018-11-26T16:38:25.180Z,97344.50
2018-11-26T16:40:29.342Z,97347.06
2018-11-26T16:42:33.427Z,97350.00
2018-11-26T16:44:37.526Z,97352.21
2018-11-26T16:46:41.602Z,97356.05
2018-11-26T16:48:45.670Z,97357.80
2018-11-26T16:50:49.780Z,97361.02
2018-11-26T16:52:53.864Z,97367.29
2018-11-26T16:54:57.993Z,97365.86
2018-11-26T16:57:02.059Z,97374.08
2018-11-26T16:59:06.287Z,97373.85
2018-11-26T17:01:10.377Z,97375.55
2018-11-26T17:03:14.442Z,97379.54
2018-11-26T17:05:18.618Z,97386.81
2018-11-26T17:07:22.692Z,97387.69
2018-11-26T17:09:26.792Z,97395.84
2018-11-26T17:11:31.042Z,97390.22
2018-11-26T17:13:35.112Z,97393.69
2018-11-26T17:15:39.208Z,97398.08
2018-11-26T17:17:43.272Z,97404.87
2018-11-26T17:19:48.253Z,97403.51
2018-11-26T17:21:52.349Z,97405.05
2018-11-26T17:23:56.419Z,97413.69
2018-11-26T17:29:50.695Z,97417.37
2018-11-26T17:32:49.612Z,97424.16
2018-11-26T17:34:53.670Z,97427.73
2018-11-26T17:37:15.958Z,97429.20
2018-11-26T17:39:50.550Z,97429.77
2018-11-26T17:42:52.827Z,97428.83
2018-11-26T17:44:59.432Z,97428.12
2018-11-26T17:47:03.487Z,97424.75
2018-11-26T17:51:49.838Z,97435.69
2018-11-26T17:54:48.833Z,97434.75
2018-11-26T17:56:52.943Z,97435.42
2018-11-26T17:58:57.025Z,97441.39
2018-11-26T18:01:50.100Z,97442.14
2018-11-26T18:06:51.838Z,97448.49
2018-11-26T18:08:55.931Z,97454.03
2018-11-26T18:11:00.395Z,97452.67
2018-11-26T18:13:04.626Z,97456.37
2018-11-26T18:15:08.871Z,97460.14
2018-11-26T18:17:30.695Z,97466.59
2018-11-26T18:19:34.789Z,97465.39
2018-11-26T18:21:50.729Z,97467.62
2018-11-26T18:26:34.311Z,97470.55
2018-11-26T18:28:38.402Z,97472.63
2018-11-26T18:31:49.567Z,97474.22
2018-11-26T18:34:48.042Z,97473.73
2018-11-26T18:36:52.125Z,97480.24
2018-11-26T18:38:56.217Z,97480.58
2018-11-26T18:41:00.311Z,97485.16
2018-11-26T18:43:04.727Z,97485.16
2018-11-26T18:45:09.080Z,97488.86
2018-11-26T18:47:13.155Z,97489.41
2018-11-26T18:49:17.212Z,97492.93
2018-11-26T18:51:21.326Z,97493.42
2018-11-26T18:53:25.400Z,97491.68
2018-11-26T18:55:50.822Z,97487.30
2018-11-26T18:57:54.901Z,97498.94
2018-11-26T18:59:58.973Z,97501.13
2018-11-26T19:02:03.078Z,97505.47
2018-11-26T19:04:49.809Z,97505.73
2018-11-26T19:06:53.925Z,97505.20
2018-11-26T19:08:57.997Z,97511.38
2018-11-26T19:11:02.067Z,97512.69
2018-11-26T19:13:06.617Z,97508.98
2018-11-26T19:15:10.680Z,97513.45
2018-11-26T19:17:14.781Z,97508.37
2018-11-26T19:19:49.342Z,97512.39
2018-11-26T19:21:53.445Z,97509.42
2018-11-26T19:24:49.317Z,97510.06
2018-11-26T19:26:53.398Z,97521.88
2018-11-26T19:28:57.484Z,97523.00
2018-11-26T19:31:01.551Z,97531.23
2018-11-26T19:33:05.643Z,97530.44
2018-11-26T19:35:09.848Z,97534.60
2018-11-26T19:37:13.957Z,97531.00
2018-11-26T19:39:18.034Z,97528.02
2018-11-26T19:41:22.123Z,97535.59
2018-11-26T19:43:26.200Z,97539.67
2018-11-26T19:45:48.551Z,97537.14
2018-11-26T19:47:52.735Z,97545.08
2018-11-26T19:50:02.217Z,97550.93
2018-11-26T19:52:03.977Z,97554.09
2018-11-26T19:54:49.462Z,97555.45
2018-11-26T19:56:53.555Z,97551.73
2018-11-26T19:58:57.657Z,97552.75
2018-11-26T20:01:01.759Z,97551.23
2018-11-26T20:03:23.764Z,97563.95
2018-11-26T20:05:27.839Z,97561.99
2018-11-26T20:07:49.930Z,97564.55
2018-11-26T20:09:54.025Z,97567.87
2018-11-26T20:12:02.694Z,97567.55
2018-11-26T20:14:48.628Z,97574.11
2018-11-26T20:16:52.698Z,97573.70
2018-11-26T20:18:56.776Z,97571.66
2018-11-26T20:21:00.861Z,97568.94
2018-11-26T20:23:05.597Z,97579.95
2018-11-26T20:25:09.927Z,97582.00
2018-11-26T20:27:14.048Z,97581.31
2018-11-26T20:29:18.155Z,97583.17
2018-11-26T20:31:49.490Z,97580.20
2018-11-26T20:33:53.575Z,97583.48
2018-11-26T20:36:48.844Z,97587.23
2018-11-26T20:38:52.908Z,97585.03
2018-11-26T20:40:57.003Z,97591.16
2018-11-26T20:43:01.083Z,97593.08
2018-11-26T20:45:07.809Z,97599.61
2018-11-26T20:47:11.966Z,97602.31
2018-11-26T20:49:16.058Z,97607.40
2018-11-26T20:53:50.910Z,97610.88
2018-11-26T20:55:54.983Z,97613.19
2018-11-26T20:57:59.057Z,97614.89
2018-11-26T21:00:03.223Z,97622.69
2018-11-26T21:02:07.315Z,97623.19
2018-11-26T21:04:47.989Z,97620.67
2018-11-26T21:06:52.103Z,97633.23
2018-11-26T21:08:56.162Z,97629.49
2018-11-26T21:11:00.246Z,97632.55
2018-11-26T21:13:04.407Z,97630.66
2018-11-26T21:15:48.427Z,97641.11
2018-11-26T21:17:52.548Z,97638.49
2018-11-26T21:19:56.620Z,97644.17
2018-11-26T21:22:00.683Z,97650.27
2018-11-26T21:24:50.435Z,97651.21
2018-11-26T21:26:54.520Z,97652.73
2018-11-26T21:28:58.620Z,97656.90
2018-11-26T21:31:02.689Z,97657.41
2018-11-26T21:33:06.942Z,97657.56
2018-11-26T21:35:47.702Z,97664.27
2018-11-26T21:37:51.790Z,97659.16
2018-11-26T21:39:55.905Z,97659.16
2018-11-26T21:46:52.869Z,97665.78
2018-11-26T21:49:47.725Z,97665.02
2018-11-26T21:58:51.326Z,97674.63
2018-11-26T22:01:50.682Z,97666.47
2018-11-26T22:04:49.855Z,97671.05
2018-11-26T22:07:48.815Z,97672.92
2018-11-26T22:10:47.927Z,97671.55
2018-11-26T22:12:52.165Z,97675.81
2018-11-26T22:14:56.257Z,97679.69
2018-11-26T22:19:49.835Z,97684.21
2018-11-26T22:22:48.821Z,97688.53
2018-11-26T22:25:48.176Z,97686.83
2018-11-26T22:28:47.966Z,97696.42
2018-11-26T22:31:47.831Z,97697.17
2018-11-26T22:37:48.787Z,97708.03
2018-11-26T22:39:52.868Z,97711.95
2018-11-26T22:59:55.199Z,97721.05
2018-11-26T23:01:59.259Z,97729.42
2018-11-26T23:04:03.357Z,97722.48
2018-11-26T23:06:07.548Z,97725.22
2018-11-26T23:08:11.619Z,97725.21
2018-11-26T23:10:15.778Z,97730.07
2018-11-26T23:12:19.875Z,97739.24
2018-11-26T23:14:24.053Z,97737.69
2018-11-26T23:16:28.131Z,97738.37
2018-11-26T23:18:32.237Z,97738.59
2018-11-26T23:20:36.314Z,97737.16
2018-11-26T23:22:40.408Z,97735.88
2018-11-26T23:24:44.467Z,97733.77
2018-11-26T23:26:48.547Z,97740.55
2018-11-26T23:28:52.644Z,97747.20
2018-11-26T23:30:56.795Z,97742.80
2018-11-26T23:33:00.888Z,97747.03
2018-11-26T23:35:06.908Z,97746.92
2018-11-26T23:37:11.021Z,97749.91
2018-11-26T23:39:15.138Z,97750.48
2018-11-26T23:41:19.200Z,97754.30
2018-11-26T23:43:23.292Z,97754.66
2018-11-26T23:45:27.467Z,97758.05
2018-11-26T23:47:31.575Z,97755.33
2018-11-26T23:49:35.658Z,97759.13
2018-11-26T23:51:39.731Z,97761.22
2018-11-26T23:53:43.818Z,97759.62
2018-11-26T23:55:47.895Z,97754.14
2018-11-26T23:57:51.964Z,97754.90
2018-11-26T23:59:56.086Z,97758.94
